Time;durP1;ratioP1;P1;durP2;ratioP2;P2;SDS_P1;SDS_P2;PMS_P1;PMS_P2;Temp;Humidity;BMP_temperature;BMP_pressure;BME280_temperature;BME280_humidity;BME280_pressure;Samples;Min_cycle;Max_cycle;Signal;HPM_P1;HPM_P2
2021/12/05 01:13:36;;;;;;;0.20;0.00;;;9.30;99.90;;;;;;20867024;28;20236;-67
2021/12/05 01:23:50;;;;;;;0.20;0.10;;;9.40;99.90;;;;;;20899063;28;20189;-67
2021/12/05 01:34:01;;;;;;;0.20;0.10;;;9.50;99.90;;;;;;20904293;28;20311;-66
2021/12/05 02:46:17;;;;;;;0.20;0.10;;;10.00;99.90;;;;;;20838772;28;20202;-71
2021/12/05 02:56:23;;;;;;;0.20;0.10;;;10.20;99.90;;;;;;20830709;28;20287;-70
2021/12/05 03:06:32;;;;;;;0.20;0.10;;;10.00;99.90;;;;;;20841697;22;20230;-67
2021/12/05 03:16:39;;;;;;;0.20;0.10;;;10.10;99.90;;;;;;20893555;28;20220;-67
2021/12/05 03:26:46;;;;;;;0.20;0.07;;;9.70;99.90;;;;;;20909435;28;20189;-68
2021/12/05 03:36:54;;;;;;;0.20;0.10;;;9.50;99.90;;;;;;20847315;28;20317;-68
2021/12/05 03:47:00;;;;;;;0.20;0.10;;;9.50;99.90;;;;;;20743862;28;20221;-68
2021/12/05 03:57:05;;;;;;;0.20;0.00;;;9.70;99.90;;;;;;20742530;28;20236;-67
2021/12/05 04:07:13;;;;;;;0.20;0.10;;;9.70;99.90;;;;;;20819561;23;20226;-73
2021/12/05 04:17:19;;;;;;;0.20;0.10;;;9.20;99.90;;;;;;20892373;28;20682;-72
2021/12/05 04:27:24;;;;;;;0.20;0.10;;;9.40;99.90;;;;;;20910033;28;20197;-74
2021/12/05 04:37:28;;;;;;;0.20;0.10;;;9.50;99.90;;;;;;20907592;28;20229;-73
2021/12/05 04:47:33;;;;;;;0.20;0.10;;;9.30;99.90;;;;;;20903948;28;20228;-73
2021/12/05 04:57:37;;;;;;;0.20;0.10;;;8.90;99.90;;;;;;20903365;28;20235;-74
2021/12/05 05:07:43;;;;;;;0.20;0.10;;;8.80;99.90;;;;;;20903214;28;20230;-74
2021/12/05 05:17:48;;;;;;;0.20;0.10;;;8.20;99.90;;;;;;20826882;28;20317;-73
2021/12/05 05:48:48;;;;;;;0.20;0.10;;;8.50;99.90;;;;;;20785605;28;20201;-73
2021/12/05 05:58:56;;;;;;;0.20;0.10;;;9.30;99.90;;;;;;20816946;28;20680;-71
2021/12/05 06:09:01;;;;;;;0.20;0.10;;;9.40;99.90;;;;;;20815899;28;20880;-75
2021/12/05 06:19:05;;;;;;;0.20;0.10;;;9.40;99.90;;;;;;20897355;28;20233;-73
2021/12/05 06:29:16;;;;;;;0.20;0.10;;;9.40;99.90;;;;;;20914195;28;20197;-74
2021/12/05 06:39:26;;;;;;;0.20;0.10;;;9.40;99.90;;;;;;20914093;28;20220;-74
2021/12/05 06:49:34;;;;;;;0.20;0.10;;;9.40;99.90;;;;;;20913242;28;20197;-74
2021/12/05 06:59:39;;;;;;;0.20;0.00;;;9.00;99.90;;;;;;20912278;28;20336;-74
2021/12/05 07:09:44;;;;;;;0.20;0.10;;;8.80;99.90;;;;;;20901294;28;20204;-75
2021/12/05 07:19:57;;;;;;;0.20;0.10;;;8.90;99.90;;;;;;20827947;28;20229;-75
2021/12/05 07:40:28;;;;;;;0.20;0.10;;;8.70;99.90;;;;;;20841903;28;20310;-74
2021/12/05 07:50:41;;;;;;;0.20;0.10;;;8.40;99.90;;;;;;20824390;28;20293;-76
2021/12/05 08:00:55;;;;;;;0.20;0.10;;;8.60;99.90;;;;;;20825014;28;20230;-75
2021/12/05 08:21:21;;;;;;;0.20;0.10;;;9.50;99.90;;;;;;20905264;28;20248;-77
2021/12/05 08:31:35;;;;;;;0.20;0.10;;;9.70;99.90;;;;;;20905986;28;20666;-76
2021/12/05 10:15:26;;;;;;;0.20;0.10;;;11.70;99.90;;;;;;21147817;28;20207;-76
2021/12/05 10:36:04;;;;;;;0.20;0.10;;;11.80;99.90;;;;;;21154350;28;20225;-78
2021/12/05 10:46:11;;;;;;;0.20;0.10;;;12.50;99.90;;;;;;21157808;28;20227;-74
2021/12/05 10:56:28;;;;;;;0.20;0.10;;;13.30;99.90;;;;;;21156825;28;20202;-75
2021/12/05 11:06:36;;;;;;;0.20;0.10;;;12.10;99.90;;;;;;21150731;28;20226;-72
2021/12/05 11:16:48;;;;;;;0.20;0.10;;;12.40;99.90;;;;;;21155994;28;20668;-74
2021/12/05 11:27:14;;;;;;;0.20;0.10;;;12.10;99.90;;;;;;21152526;28;20211;-72
2021/12/05 11:37:19;;;;;;;0.20;0.10;;;11.50;99.90;;;;;;21151398;28;20272;-72
2021/12/05 11:47:24;;;;;;;0.20;0.10;;;12.40;99.90;;;;;;21147843;28;20230;-71
2021/12/05 11:57:29;;;;;;;0.20;0.10;;;14.60;99.90;;;;;;21139864;28;20719;-73
2021/12/05 12:07:35;;;;;;;0.20;0.10;;;15.20;99.90;;;;;;21149278;28;20215;-71
2021/12/05 12:17:40;;;;;;;0.20;0.10;;;15.20;99.90;;;;;;21149168;28;20555;-71
2021/12/05 12:27:44;;;;;;;0.20;0.00;;;16.00;99.90;;;;;;21146309;28;20247;-71
2021/12/05 12:37:58;;;;;;;0.20;0.00;;;15.80;99.90;;;;;;21148123;28;20276;-73
2021/12/05 12:48:04;;;;;;;0.20;0.10;;;16.00;99.90;;;;;;21148663;28;20234;-72
2021/12/05 12:58:11;;;;;;;0.20;0.10;;;16.00;99.90;;;;;;21149559;28;20274;-73
2021/12/05 13:18:45;;;;;;;0.20;0.10;;;15.60;99.90;;;;;;21141282;28;20202;-73
2021/12/05 13:28:51;;;;;;;0.20;0.10;;;15.70;99.90;;;;;;21147209;28;20380;-73
2021/12/05 13:38:55;;;;;;;0.20;0.10;;;15.30;99.90;;;;;;21162654;28;20290;-75
2021/12/05 13:48:59;;;;;;;0.20;0.10;;;15.90;99.90;;;;;;21160419;28;20803;-74
2021/12/05 13:59:07;;;;;;;0.20;0.10;;;15.80;99.90;;;;;;21162168;28;20283;-73
2021/12/05 14:09:17;;;;;;;0.20;0.10;;;15.80;99.90;;;;;;21161774;28;20207;-72
2021/12/05 14:19:25;;;;;;;0.20;0.10;;;15.90;99.90;;;;;;21158024;28;20199;-71
2021/12/05 14:29:33;;;;;;;0.20;0.10;;;15.80;99.90;;;;;;21158637;28;20698;-75
2021/12/05 14:39:41;;;;;;;0.20;0.10;;;15.40;99.90;;;;;;21157797;28;20644;-72
2021/12/05 14:49:49;;;;;;;0.20;0.20;;;14.30;99.90;;;;;;21155695;28;20235;-72
2021/12/05 15:00:05;;;;;;;0.20;0.07;;;14.40;99.90;;;;;;21155868;28;20205;-73
2021/12/05 15:10:10;;;;;;;0.20;0.10;;;15.00;99.90;;;;;;21154924;28;20227;-71
2021/12/05 15:20:18;;;;;;;0.40;0.37;;;14.90;99.90;;;;;;21153591;28;20680;-71
2021/12/05 15:30:26;;;;;;;0.20;0.00;;;15.20;99.90;;;;;;21152274;28;20254;-74
2021/12/05 15:40:33;;;;;;;0.20;0.10;;;14.60;99.90;;;;;;21151932;28;20704;-71
2021/12/05 15:50:38;;;;;;;0.20;0.10;;;13.90;99.90;;;;;;21150934;28;20870;-72
2021/12/05 16:00:47;;;;;;;0.20;0.10;;;13.40;99.90;;;;;;21149351;28;20191;-71
2021/12/05 16:10:57;;;;;;;0.20;0.10;;;12.70;99.90;;;;;;21148801;28;20223;-72
2021/12/05 16:21:05;;;;;;;0.20;0.10;;;12.40;99.90;;;;;;21147504;28;20250;-73
2021/12/05 16:31:15;;;;;;;0.20;0.10;;;12.00;99.90;;;;;;21146597;28;20310;-72
2021/12/05 16:41:25;;;;;;;0.20;0.10;;;12.10;99.90;;;;;;21146840;28;20191;-77
2021/12/05 16:51:32;;;;;;;0.20;0.10;;;12.00;99.90;;;;;;21147424;28;20227;-77
2021/12/05 17:01:37;;;;;;;0.20;0.10;;;11.80;99.90;;;;;;21148022;28;20191;-78
2021/12/05 17:11:41;;;;;;;0.20;0.10;;;11.50;99.90;;;;;;21128423;28;20235;-80
2021/12/05 17:21:49;;;;;;;0.20;0.10;;;11.40;99.90;;;;;;21098637;28;20283;-77
2021/12/05 17:31:56;;;;;;;0.20;0.10;;;11.20;99.90;;;;;;21093455;28;20220;-77
2021/12/05 17:42:06;;;;;;;0.20;0.10;;;11.20;99.90;;;;;;21131564;28;20211;-79
2021/12/05 17:52:13;;;;;;;0.20;0.10;;;11.10;99.90;;;;;;21131300;28;20214;-78
2021/12/05 18:02:57;;;;;;;0.20;0.10;;;11.00;99.90;;;;;;21138471;28;20200;-78
2021/12/05 18:14:01;;;;;;;0.20;0.10;;;10.90;99.90;;;;;;21143637;28;20203;-77
2021/12/05 18:35:01;;;;;;;0.20;0.10;;;10.70;99.90;;;;;;22001741;23;20237;-74
2021/12/05 18:45:06;;;;;;;0.20;0.10;;;10.40;99.90;;;;;;20505946;29;20225;-72
2021/12/05 18:55:17;;;;;;;0.20;0.10;;;10.20;99.90;;;;;;20511194;29;20221;-73
2021/12/05 19:05:31;;;;;;;0.20;0.10;;;9.90;99.90;;;;;;20497682;29;20490;-73
2021/12/05 19:15:36;;;;;;;0.20;0.10;;;9.40;99.90;;;;;;20495605;29;20730;-72
2021/12/05 19:25:41;;;;;;;0.20;0.10;;;9.00;99.90;;;;;;20494519;29;20609;-72
2021/12/05 19:35:47;;;;;;;0.20;0.10;;;8.90;99.90;;;;;;20475480;29;20224;-71
2021/12/05 19:45:55;;;;;;;0.20;0.10;;;8.90;99.90;;;;;;20494659;29;20225;-72
2021/12/05 19:56:00;;;;;;;0.20;0.10;;;8.90;99.90;;;;;;20494141;29;20678;-72
2021/12/05 20:06:04;;;;;;;0.20;0.10;;;8.60;99.90;;;;;;20492506;29;20315;-72
2021/12/05 20:16:09;;;;;;;0.20;0.10;;;8.20;99.90;;;;;;20494493;29;20228;-71
2021/12/05 20:26:16;;;;;;;0.20;0.10;;;7.30;99.90;;;;;;20493980;29;20884;-71
2021/12/05 20:36:22;;;;;;;0.20;0.10;;;7.00;99.90;;;;;;20475706;29;20323;-72
2021/12/05 20:46:25;;;;;;;0.20;0.10;;;6.50;99.90;;;;;;20497669;28;20236;-73
2021/12/05 20:56:33;;;;;;;0.30;0.30;;;5.90;99.90;;;;;;20493313;29;20192;-72
2021/12/05 21:06:37;;;;;;;0.20;0.10;;;5.40;99.90;;;;;;20485081;29;20224;-74
2021/12/05 21:16:42;;;;;;;0.20;0.10;;;5.60;99.90;;;;;;20489966;28;20296;-74
2021/12/05 21:26:46;;;;;;;0.20;0.10;;;5.80;99.90;;;;;;20489265;29;20225;-73
2021/12/05 21:36:52;;;;;;;0.20;0.10;;;6.30;99.90;;;;;;20488973;29;20240;-72
2021/12/05 21:46:57;;;;;;;0.20;0.10;;;7.70;99.90;;;;;;20489989;29;20221;-72
2021/12/05 21:57:02;;;;;;;0.20;0.10;;;8.80;99.90;;;;;;20498816;28;20309;-72
2021/12/05 22:07:06;;;;;;;0.20;0.10;;;8.90;99.90;;;;;;20503099;29;20228;-71
2021/12/05 22:17:11;;;;;;;0.20;0.10;;;9.00;99.90;;;;;;20502021;29;20288;-70
2021/12/05 22:27:16;;;;;;;0.20;0.10;;;8.40;99.90;;;;;;20484076;29;20224;-72
2021/12/05 22:37:24;;;;;;;0.20;0.10;;;8.10;99.90;;;;;;20500417;29;20256;-72
2021/12/05 22:47:28;;;;;;;0.20;0.10;;;7.80;99.90;;;;;;20499927;29;20318;-74
2021/12/05 22:57:32;;;;;;;0.20;0.10;;;7.30;99.90;;;;;;20499318;29;20212;-70
2021/12/05 23:07:36;;;;;;;0.20;0.10;;;6.80;99.90;;;;;;20487590;28;20221;-72
2021/12/05 23:17:41;;;;;;;0.20;0.10;;;5.90;99.90;;;;;;20519018;28;20584;-74
2021/12/05 23:27:46;;;;;;;0.20;0.10;;;5.60;99.90;;;;;;20504584;29;20381;-73
2021/12/05 23:37:53;;;;;;;0.20;0.10;;;5.60;99.90;;;;;;20494531;29;20308;-75
2021/12/05 23:47:57;;;;;;;0.20;0.10;;;5.50;99.90;;;;;;20503454;29;20228;-74
2021/12/05 23:58:02;;;;;;;0.20;0.10;;;5.60;99.90;;;;;;20494226;29;20186;-73
